sensor_id;sensor_type;location;lat;lon;timestamp;P1;durP1;ratioP1;P2;durP2;ratioP2
3563;SDS011;1796;52.388;13.096;2022-07-23T00:00:18;12.30;;;7.47;;
3563;SDS011;1796;52.388;13.096;2022-07-23T00:02:46;11.57;;;6.23;;
3563;SDS011;1796;52.388;13.096;2022-07-23T00:05:13;12.40;;;7.10;;
3563;SDS011;1796;52.388;13.096;2022-07-23T00:07:40;13.60;;;6.50;;
3563;SDS011;1796;52.388;13.096;2022-07-23T00:10:07;9.73;;;6.13;;
3563;SDS011;1796;52.388;13.096;2022-07-23T00:12:36;10.90;;;6.47;;
3563;SDS011;1796;52.388;13.096;2022-07-23T00:15:03;9.90;;;6.50;;
3563;SDS011;1796;52.388;13.096;2022-07-23T00:17:32;11.80;;;6.00;;
3563;SDS011;1796;52.388;13.096;2022-07-23T00:19:59;7.60;;;5.90;;
3563;SDS011;1796;52.388;13.096;2022-07-23T00:22:26;8.17;;;5.83;;
3563;SDS011;1796;52.388;13.096;2022-07-23T00:24:54;12.30;;;6.67;;
3563;SDS011;1796;52.388;13.096;2022-07-23T00:27:21;9.00;;;5.87;;
3563;SDS011;1796;52.388;13.096;2022-07-23T00:29:49;15.13;;;6.30;;
3563;SDS011;1796;52.388;13.096;2022-07-23T00:32:16;8.63;;;6.10;;
3563;SDS011;1796;52.388;13.096;2022-07-23T00:34:43;10.13;;;5.50;;
3563;SDS011;1796;52.388;13.096;2022-07-23T00:37:10;19.13;;;5.60;;
3563;SDS011;1796;52.388;13.096;2022-07-23T00:39:37;11.83;;;6.17;;
3563;SDS011;1796;52.388;13.096;2022-07-23T00:42:04;8.37;;;6.17;;
3563;SDS011;1796;52.388;13.096;2022-07-23T00:44:31;8.70;;;6.43;;
3563;SDS011;1796;52.388;13.096;2022-07-23T00:46:59;9.63;;;6.27;;
3563;SDS011;1796;52.388;13.096;2022-07-23T00:49:27;7.33;;;5.83;;
3563;SDS011;1796;52.388;13.096;2022-07-23T00:51:55;10.63;;;5.50;;
3563;SDS011;1796;52.388;13.096;2022-07-23T00:54:23;9.07;;;6.20;;
3563;SDS011;1796;52.388;13.096;2022-07-23T00:56:52;7.87;;;6.40;;
3563;SDS011;1796;52.388;13.096;2022-07-23T00:59:19;9.07;;;6.00;;
3563;SDS011;1796;52.388;13.096;2022-07-23T01:01:46;7.03;;;6.10;;
3563;SDS011;1796;52.388;13.096;2022-07-23T01:04:15;9.43;;;6.50;;
3563;SDS011;1796;52.388;13.096;2022-07-23T01:06:43;9.87;;;6.10;;
3563;SDS011;1796;52.388;13.096;2022-07-23T01:09:11;10.97;;;6.30;;
3563;SDS011;1796;52.388;13.096;2022-07-23T01:11:38;8.13;;;5.93;;
3563;SDS011;1796;52.388;13.096;2022-07-23T01:14:10;14.23;;;5.87;;
3563;SDS011;1796;52.388;13.096;2022-07-23T01:16:38;12.50;;;7.20;;
3563;SDS011;1796;52.388;13.096;2022-07-23T01:19:05;9.60;;;6.50;;
3563;SDS011;1796;52.388;13.096;2022-07-23T01:21:35;10.23;;;5.90;;
3563;SDS011;1796;52.388;13.096;2022-07-23T01:24:05;8.90;;;5.67;;
3563;SDS011;1796;52.388;13.096;2022-07-23T01:26:33;11.20;;;6.13;;
3563;SDS011;1796;52.388;13.096;2022-07-23T01:29:00;12.40;;;5.63;;
3563;SDS011;1796;52.388;13.096;2022-07-23T01:31:27;6.30;;;5.40;;
3563;SDS011;1796;52.388;13.096;2022-07-23T01:33:54;14.57;;;6.67;;
3563;SDS011;1796;52.388;13.096;2022-07-23T01:36:21;8.33;;;5.97;;
3563;SDS011;1796;52.388;13.096;2022-07-23T01:38:48;8.67;;;5.13;;
3563;SDS011;1796;52.388;13.096;2022-07-23T01:41:17;6.70;;;6.00;;
3563;SDS011;1796;52.388;13.096;2022-07-23T01:43:44;14.30;;;5.40;;
3563;SDS011;1796;52.388;13.096;2022-07-23T01:46:11;10.27;;;6.53;;
3563;SDS011;1796;52.388;13.096;2022-07-23T01:48:38;21.87;;;6.03;;
3563;SDS011;1796;52.388;13.096;2022-07-23T01:51:05;21.57;;;6.23;;
3563;SDS011;1796;52.388;13.096;2022-07-23T01:53:33;11.50;;;6.27;;
3563;SDS011;1796;52.388;13.096;2022-07-23T01:56:00;7.03;;;5.90;;
3563;SDS011;1796;52.388;13.096;2022-07-23T01:58:29;8.93;;;6.83;;
3563;SDS011;1796;52.388;13.096;2022-07-23T02:00:56;11.67;;;6.40;;
3563;SDS011;1796;52.388;13.096;2022-07-23T02:03:24;11.50;;;6.60;;
3563;SDS011;1796;52.388;13.096;2022-07-23T02:05:52;7.80;;;6.27;;
3563;SDS011;1796;52.388;13.096;2022-07-23T02:08:19;9.13;;;5.67;;
3563;SDS011;1796;52.388;13.096;2022-07-23T02:10:46;7.10;;;6.00;;
3563;SDS011;1796;52.388;13.096;2022-07-23T02:13:13;5.77;;;5.17;;
3563;SDS011;1796;52.388;13.096;2022-07-23T02:15:41;5.27;;;4.77;;
3563;SDS011;1796;52.388;13.096;2022-07-23T02:18:09;6.53;;;5.93;;
3563;SDS011;1796;52.388;13.096;2022-07-23T02:20:35;9.70;;;4.70;;
3563;SDS011;1796;52.388;13.096;2022-07-23T02:23:03;16.80;;;5.03;;
3563;SDS011;1796;52.388;13.096;2022-07-23T02:25:31;10.97;;;5.53;;
3563;SDS011;1796;52.388;13.096;2022-07-23T02:27:59;8.87;;;5.20;;
3563;SDS011;1796;52.388;13.096;2022-07-23T02:30:26;6.07;;;4.90;;
3563;SDS011;1796;52.388;13.096;2022-07-23T02:32:54;10.90;;;4.90;;
3563;SDS011;1796;52.388;13.096;2022-07-23T02:35:21;7.87;;;4.63;;
3563;SDS011;1796;52.388;13.096;2022-07-23T02:37:48;6.13;;;4.30;;
3563;SDS011;1796;52.388;13.096;2022-07-23T02:40:15;7.80;;;4.60;;
3563;SDS011;1796;52.388;13.096;2022-07-23T02:42:42;7.60;;;4.70;;
3563;SDS011;1796;52.388;13.096;2022-07-23T02:45:09;17.53;;;4.47;;
3563;SDS011;1796;52.388;13.096;2022-07-23T02:47:36;9.23;;;4.90;;
3563;SDS011;1796;52.388;13.096;2022-07-23T02:50:05;18.47;;;4.47;;
3563;SDS011;1796;52.388;13.096;2022-07-23T02:52:32;10.97;;;4.60;;
3563;SDS011;1796;52.388;13.096;2022-07-23T02:54:59;6.73;;;4.83;;
3563;SDS011;1796;52.388;13.096;2022-07-23T02:57:26;5.53;;;3.73;;
3563;SDS011;1796;52.388;13.096;2022-07-23T02:59:53;5.03;;;4.63;;
3563;SDS011;1796;52.388;13.096;2022-07-23T03:02:20;8.40;;;5.30;;
3563;SDS011;1796;52.388;13.096;2022-07-23T03:04:46;5.77;;;4.73;;
3563;SDS011;1796;52.388;13.096;2022-07-23T03:07:16;6.23;;;4.20;;
3563;SDS011;1796;52.388;13.096;2022-07-23T03:09:43;9.87;;;4.63;;
3563;SDS011;1796;52.388;13.096;2022-07-23T03:12:10;10.17;;;4.50;;
3563;SDS011;1796;52.388;13.096;2022-07-23T03:14:37;7.40;;;3.90;;
3563;SDS011;1796;52.388;13.096;2022-07-23T03:17:03;8.80;;;5.07;;
3563;SDS011;1796;52.388;13.096;2022-07-23T03:19:30;13.80;;;4.80;;
3563;SDS011;1796;52.388;13.096;2022-07-23T03:21:57;6.43;;;4.43;;
3563;SDS011;1796;52.388;13.096;2022-07-23T03:24:25;9.77;;;4.20;;
3563;SDS011;1796;52.388;13.096;2022-07-23T03:27:13;14.30;;;4.70;;
3563;SDS011;1796;52.388;13.096;2022-07-23T03:29:40;6.00;;;4.17;;
3563;SDS011;1796;52.388;13.096;2022-07-23T03:32:07;8.57;;;4.00;;
3563;SDS011;1796;52.388;13.096;2022-07-23T03:34:34;7.47;;;3.97;;
3563;SDS011;1796;52.388;13.096;2022-07-23T03:37:01;8.00;;;3.80;;
3563;SDS011;1796;52.388;13.096;2022-07-23T03:39:30;5.70;;;4.27;;
3563;SDS011;1796;52.388;13.096;2022-07-23T03:41:57;5.10;;;3.90;;
3563;SDS011;1796;52.388;13.096;2022-07-23T03:44:24;9.13;;;3.50;;
3563;SDS011;1796;52.388;13.096;2022-07-23T03:46:51;5.30;;;3.70;;
3563;SDS011;1796;52.388;13.096;2022-07-23T03:49:18;6.73;;;3.97;;
3563;SDS011;1796;52.388;13.096;2022-07-23T03:51:45;7.33;;;3.60;;
3563;SDS011;1796;52.388;13.096;2022-07-23T03:54:11;9.67;;;4.13;;
3563;SDS011;1796;52.388;13.096;2022-07-23T03:56:40;7.97;;;3.73;;
3563;SDS011;1796;52.388;13.096;2022-07-23T03:59:07;10.83;;;3.77;;
3563;SDS011;1796;52.388;13.096;2022-07-23T04:01:35;5.20;;;4.10;;
3563;SDS011;1796;52.388;13.096;2022-07-23T04:04:02;9.03;;;4.57;;
3563;SDS011;1796;52.388;13.096;2022-07-23T04:06:29;12.20;;;3.97;;
3563;SDS011;1796;52.388;13.096;2022-07-23T04:08:57;9.97;;;4.23;;
3563;SDS011;1796;52.388;13.096;2022-07-23T04:11:24;16.10;;;4.80;;
3563;SDS011;1796;52.388;13.096;2022-07-23T04:13:52;14.00;;;4.30;;
3563;SDS011;1796;52.388;13.096;2022-07-23T04:16:19;14.30;;;5.77;;
3563;SDS011;1796;52.388;13.096;2022-07-23T04:18:46;12.90;;;5.07;;
3563;SDS011;1796;52.388;13.096;2022-07-23T04:21:13;4.80;;;4.40;;
3563;SDS011;1796;52.388;13.096;2022-07-23T04:23:40;6.87;;;5.07;;
3563;SDS011;1796;52.388;13.096;2022-07-23T04:26:06;12.90;;;5.20;;
3563;SDS011;1796;52.388;13.096;2022-07-23T04:28:33;14.83;;;5.30;;
3563;SDS011;1796;52.388;13.096;2022-07-23T04:31:02;7.87;;;4.70;;
3563;SDS011;1796;52.388;13.096;2022-07-23T04:33:28;9.57;;;5.37;;
3563;SDS011;1796;52.388;13.096;2022-07-23T04:35:55;10.30;;;5.13;;
3563;SDS011;1796;52.388;13.096;2022-07-23T04:38:22;12.23;;;5.90;;
3563;SDS011;1796;52.388;13.096;2022-07-23T04:40:49;17.57;;;6.27;;
3563;SDS011;1796;52.388;13.096;2022-07-23T04:43:16;12.27;;;5.37;;
3563;SDS011;1796;52.388;13.096;2022-07-23T04:45:43;16.37;;;5.63;;
3563;SDS011;1796;52.388;13.096;2022-07-23T04:48:11;10.93;;;5.63;;
3563;SDS011;1796;52.388;13.096;2022-07-23T04:50:38;12.03;;;6.07;;
3563;SDS011;1796;52.388;13.096;2022-07-23T04:53:05;16.03;;;5.50;;
3563;SDS011;1796;52.388;13.096;2022-07-23T04:55:32;8.77;;;5.43;;
3563;SDS011;1796;52.388;13.096;2022-07-23T04:57:59;12.07;;;5.50;;
3563;SDS011;1796;52.388;13.096;2022-07-23T05:00:26;12.30;;;5.90;;
3563;SDS011;1796;52.388;13.096;2022-07-23T05:02:52;11.07;;;5.53;;
3563;SDS011;1796;52.388;13.096;2022-07-23T05:05:21;8.83;;;6.80;;
3563;SDS011;1796;52.388;13.096;2022-07-23T05:07:48;12.13;;;5.70;;
3563;SDS011;1796;52.388;13.096;2022-07-23T05:10:15;11.67;;;5.70;;
3563;SDS011;1796;52.388;13.096;2022-07-23T05:12:42;16.80;;;5.70;;
3563;SDS011;1796;52.388;13.096;2022-07-23T05:15:08;10.60;;;6.50;;
3563;SDS011;1796;52.388;13.096;2022-07-23T05:17:35;15.47;;;6.47;;
3563;SDS011;1796;52.388;13.096;2022-07-23T05:20:02;15.70;;;6.47;;
3563;SDS011;1796;52.388;13.096;2022-07-23T05:22:31;21.20;;;6.37;;
3563;SDS011;1796;52.388;13.096;2022-07-23T05:24:58;16.43;;;6.90;;
3563;SDS011;1796;52.388;13.096;2022-07-23T05:27:25;6.77;;;6.00;;
3563;SDS011;1796;52.388;13.096;2022-07-23T05:29:52;8.20;;;5.93;;
3563;SDS011;1796;52.388;13.096;2022-07-23T05:32:19;9.80;;;5.73;;
3563;SDS011;1796;52.388;13.096;2022-07-23T05:34:46;7.83;;;5.57;;
3563;SDS011;1796;52.388;13.096;2022-07-23T05:37:12;23.43;;;7.27;;
3563;SDS011;1796;52.388;13.096;2022-07-23T05:39:41;9.37;;;5.87;;
3563;SDS011;1796;52.388;13.096;2022-07-23T05:42:08;7.37;;;5.93;;
3563;SDS011;1796;52.388;13.096;2022-07-23T05:44:34;12.57;;;6.00;;
3563;SDS011;1796;52.388;13.096;2022-07-23T05:47:01;10.50;;;5.80;;
3563;SDS011;1796;52.388;13.096;2022-07-23T05:49:28;12.13;;;6.73;;
3563;SDS011;1796;52.388;13.096;2022-07-23T05:51:55;10.70;;;7.00;;
3563;SDS011;1796;52.388;13.096;2022-07-23T05:54:22;16.50;;;6.67;;
3563;SDS011;1796;52.388;13.096;2022-07-23T05:56:50;11.30;;;6.13;;
3563;SDS011;1796;52.388;13.096;2022-07-23T05:59:17;15.10;;;6.97;;
3563;SDS011;1796;52.388;13.096;2022-07-23T06:01:44;12.47;;;6.43;;
3563;SDS011;1796;52.388;13.096;2022-07-23T06:04:11;10.47;;;8.10;;
3563;SDS011;1796;52.388;13.096;2022-07-23T06:06:38;20.27;;;7.80;;
3563;SDS011;1796;52.388;13.096;2022-07-23T06:09:05;19.13;;;7.73;;
3563;SDS011;1796;52.388;13.096;2022-07-23T06:11:32;19.97;;;6.67;;
3563;SDS011;1796;52.388;13.096;2022-07-23T06:14:00;18.67;;;9.47;;
3563;SDS011;1796;52.388;13.096;2022-07-23T06:16:28;15.70;;;5.77;;
3563;SDS011;1796;52.388;13.096;2022-07-23T06:18:54;9.60;;;6.13;;
3563;SDS011;1796;52.388;13.096;2022-07-23T06:21:21;13.97;;;5.57;;
3563;SDS011;1796;52.388;13.096;2022-07-23T06:23:48;13.30;;;6.00;;
3563;SDS011;1796;52.388;13.096;2022-07-23T06:26:15;15.97;;;5.77;;
3563;SDS011;1796;52.388;13.096;2022-07-23T06:28:42;7.13;;;5.23;;
3563;SDS011;1796;52.388;13.096;2022-07-23T06:31:10;12.57;;;6.03;;
3563;SDS011;1796;52.388;13.096;2022-07-23T06:33:37;9.37;;;5.77;;
3563;SDS011;1796;52.388;13.096;2022-07-23T06:36:04;10.03;;;5.60;;
3563;SDS011;1796;52.388;13.096;2022-07-23T06:38:31;8.63;;;5.93;;
3563;SDS011;1796;52.388;13.096;2022-07-23T06:40:58;13.63;;;6.20;;
3563;SDS011;1796;52.388;13.096;2022-07-23T06:43:25;11.50;;;5.87;;
3563;SDS011;1796;52.388;13.096;2022-07-23T06:45:52;26.13;;;5.87;;
3563;SDS011;1796;52.388;13.096;2022-07-23T06:48:20;19.13;;;5.97;;
3563;SDS011;1796;52.388;13.096;2022-07-23T06:50:47;12.83;;;6.37;;
3563;SDS011;1796;52.388;13.096;2022-07-23T06:53:14;8.63;;;5.73;;
3563;SDS011;1796;52.388;13.096;2022-07-23T06:55:41;10.17;;;6.03;;
3563;SDS011;1796;52.388;13.096;2022-07-23T06:58:08;12.87;;;5.70;;
3563;SDS011;1796;52.388;13.096;2022-07-23T07:00:35;8.33;;;5.57;;
3563;SDS011;1796;52.388;13.096;2022-07-23T07:03:02;17.03;;;6.40;;
3563;SDS011;1796;52.388;13.096;2022-07-23T07:05:30;13.03;;;6.87;;
3563;SDS011;1796;52.388;13.096;2022-07-23T07:07:57;15.70;;;7.40;;
3563;SDS011;1796;52.388;13.096;2022-07-23T07:10:24;9.00;;;6.87;;
3563;SDS011;1796;52.388;13.096;2022-07-23T07:12:51;9.50;;;5.50;;
3563;SDS011;1796;52.388;13.096;2022-07-23T07:15:18;9.00;;;5.27;;
3563;SDS011;1796;52.388;13.096;2022-07-23T07:17:45;16.07;;;5.90;;
3563;SDS011;1796;52.388;13.096;2022-07-23T07:20:12;5.63;;;5.13;;
3563;SDS011;1796;52.388;13.096;2022-07-23T07:22:40;9.47;;;5.40;;
3563;SDS011;1796;52.388;13.096;2022-07-23T07:25:07;10.27;;;5.80;;
3563;SDS011;1796;52.388;13.096;2022-07-23T07:27:35;17.30;;;5.70;;
3563;SDS011;1796;52.388;13.096;2022-07-23T07:30:02;10.17;;;6.13;;
3563;SDS011;1796;52.388;13.096;2022-07-23T07:32:30;8.13;;;5.60;;
3563;SDS011;1796;52.388;13.096;2022-07-23T07:34:58;5.37;;;4.80;;
3563;SDS011;1796;52.388;13.096;2022-07-23T07:37:25;8.33;;;4.50;;
3563;SDS011;1796;52.388;13.096;2022-07-23T07:39:53;8.83;;;4.87;;
3563;SDS011;1796;52.388;13.096;2022-07-23T07:42:20;7.50;;;4.60;;
3563;SDS011;1796;52.388;13.096;2022-07-23T07:44:47;6.77;;;4.70;;
3563;SDS011;1796;52.388;13.096;2022-07-23T07:47:14;7.13;;;4.20;;
3563;SDS011;1796;52.388;13.096;2022-07-23T07:49:41;9.50;;;3.93;;
3563;SDS011;1796;52.388;13.096;2022-07-23T07:52:08;6.50;;;3.80;;
3563;SDS011;1796;52.388;13.096;2022-07-23T07:54:35;5.13;;;3.40;;
3563;SDS011;1796;52.388;13.096;2022-07-23T07:57:03;7.80;;;3.83;;
3563;SDS011;1796;52.388;13.096;2022-07-23T07:59:30;9.23;;;3.53;;
3563;SDS011;1796;52.388;13.096;2022-07-23T08:01:57;6.23;;;3.40;;
3563;SDS011;1796;52.388;13.096;2022-07-23T08:04:24;7.27;;;3.27;;
3563;SDS011;1796;52.388;13.096;2022-07-23T08:06:51;5.73;;;3.30;;
3563;SDS011;1796;52.388;13.096;2022-07-23T08:09:18;7.03;;;4.07;;
3563;SDS011;1796;52.388;13.096;2022-07-23T08:11:45;9.30;;;4.23;;
3563;SDS011;1796;52.388;13.096;2022-07-23T08:14:13;6.60;;;3.13;;
3563;SDS011;1796;52.388;13.096;2022-07-23T08:16:40;6.93;;;3.47;;
3563;SDS011;1796;52.388;13.096;2022-07-23T08:19:07;5.67;;;3.60;;
3563;SDS011;1796;52.388;13.096;2022-07-23T08:21:34;6.40;;;3.37;;
3563;SDS011;1796;52.388;13.096;2022-07-23T08:24:00;12.37;;;3.00;;
3563;SDS011;1796;52.388;13.096;2022-07-23T08:26:27;6.00;;;3.20;;
3563;SDS011;1796;52.388;13.096;2022-07-23T08:28:54;8.47;;;3.87;;
3563;SDS011;1796;52.388;13.096;2022-07-23T08:31:22;5.43;;;3.03;;
3563;SDS011;1796;52.388;13.096;2022-07-23T08:33:49;6.83;;;3.97;;
3563;SDS011;1796;52.388;13.096;2022-07-23T08:36:17;3.27;;;2.10;;
3563;SDS011;1796;52.388;13.096;2022-07-23T08:38:44;6.60;;;3.27;;
3563;SDS011;1796;52.388;13.096;2022-07-23T08:41:11;6.20;;;3.13;;
3563;SDS011;1796;52.388;13.096;2022-07-23T08:43:38;7.70;;;3.37;;
3563;SDS011;1796;52.388;13.096;2022-07-23T08:46:08;4.90;;;3.10;;
3563;SDS011;1796;52.388;13.096;2022-07-23T08:48:36;4.50;;;3.03;;
3563;SDS011;1796;52.388;13.096;2022-07-23T08:51:03;3.30;;;2.97;;
3563;SDS011;1796;52.388;13.096;2022-07-23T08:53:32;4.50;;;3.00;;
3563;SDS011;1796;52.388;13.096;2022-07-23T08:56:01;11.10;;;3.13;;
3563;SDS011;1796;52.388;13.096;2022-07-23T08:58:29;3.40;;;3.10;;
3563;SDS011;1796;52.388;13.096;2022-07-23T09:00:56;8.23;;;3.33;;
3563;SDS011;1796;52.388;13.096;2022-07-23T09:03:24;5.23;;;2.90;;
3563;SDS011;1796;52.388;13.096;2022-07-23T09:05:53;3.40;;;3.10;;
3563;SDS011;1796;52.388;13.096;2022-07-23T09:08:22;4.17;;;3.53;;
3563;SDS011;1796;52.388;13.096;2022-07-23T09:10:50;9.00;;;2.97;;
3563;SDS011;1796;52.388;13.096;2022-07-23T09:13:23;4.67;;;3.23;;
3563;SDS011;1796;52.388;13.096;2022-07-23T09:15:58;5.57;;;4.23;;
3563;SDS011;1796;52.388;13.096;2022-07-23T09:18:31;8.97;;;4.13;;
3563;SDS011;1796;52.388;13.096;2022-07-23T09:21:07;6.47;;;3.87;;
3563;SDS011;1796;52.388;13.096;2022-07-23T09:23:39;7.67;;;3.60;;
3563;SDS011;1796;52.388;13.096;2022-07-23T09:26:17;5.47;;;3.80;;
3563;SDS011;1796;52.388;13.096;2022-07-23T09:28:53;6.37;;;3.83;;
3563;SDS011;1796;52.388;13.096;2022-07-23T09:31:22;8.90;;;4.40;;
3563;SDS011;1796;52.388;13.096;2022-07-23T09:33:50;6.80;;;4.00;;
3563;SDS011;1796;52.388;13.096;2022-07-23T09:36:28;5.90;;;3.60;;
3563;SDS011;1796;52.388;13.096;2022-07-23T09:38:55;6.27;;;3.87;;
3563;SDS011;1796;52.388;13.096;2022-07-23T09:41:22;5.77;;;4.30;;
3563;SDS011;1796;52.388;13.096;2022-07-23T09:43:54;12.53;;;4.53;;
3563;SDS011;1796;52.388;13.096;2022-07-23T09:46:22;7.10;;;3.83;;
3563;SDS011;1796;52.388;13.096;2022-07-23T09:48:51;5.70;;;4.00;;
3563;SDS011;1796;52.388;13.096;2022-07-23T09:51:18;11.80;;;4.10;;
3563;SDS011;1796;52.388;13.096;2022-07-23T09:53:52;8.40;;;4.30;;
3563;SDS011;1796;52.388;13.096;2022-07-23T09:56:19;7.60;;;4.53;;
3563;SDS011;1796;52.388;13.096;2022-07-23T09:58:48;7.63;;;4.30;;
3563;SDS011;1796;52.388;13.096;2022-07-23T10:01:17;10.07;;;4.10;;
3563;SDS011;1796;52.388;13.096;2022-07-23T10:03:46;6.17;;;3.40;;
3563;SDS011;1796;52.388;13.096;2022-07-23T10:06:13;4.83;;;4.07;;
3563;SDS011;1796;52.388;13.096;2022-07-23T10:08:41;10.07;;;4.30;;
3563;SDS011;1796;52.388;13.096;2022-07-23T10:11:12;10.10;;;3.77;;
3563;SDS011;1796;52.388;13.096;2022-07-23T10:13:40;5.07;;;3.53;;
3563;SDS011;1796;52.388;13.096;2022-07-23T10:16:20;5.10;;;4.00;;
3563;SDS011;1796;52.388;13.096;2022-07-23T10:18:48;9.00;;;4.80;;
3563;SDS011;1796;52.388;13.096;2022-07-23T10:21:18;6.03;;;4.17;;
3563;SDS011;1796;52.388;13.096;2022-07-23T10:23:58;8.50;;;4.07;;
3563;SDS011;1796;52.388;13.096;2022-07-23T10:26:36;7.07;;;4.17;;
3563;SDS011;1796;52.388;13.096;2022-07-23T10:29:12;8.93;;;4.80;;
3563;SDS011;1796;52.388;13.096;2022-07-23T10:31:48;7.17;;;3.77;;
3563;SDS011;1796;52.388;13.096;2022-07-23T10:34:24;11.17;;;3.30;;
3563;SDS011;1796;52.388;13.096;2022-07-23T10:36:58;9.17;;;4.10;;
3563;SDS011;1796;52.388;13.096;2022-07-23T10:39:30;4.50;;;3.60;;
3563;SDS011;1796;52.388;13.096;2022-07-23T10:42:10;9.63;;;3.77;;
3563;SDS011;1796;52.388;13.096;2022-07-23T10:44:38;6.27;;;3.57;;
3563;SDS011;1796;52.388;13.096;2022-07-23T10:47:07;10.50;;;3.73;;
3563;SDS011;1796;52.388;13.096;2022-07-23T10:50:21;8.60;;;3.80;;
3563;SDS011;1796;52.388;13.096;2022-07-23T10:53:07;7.80;;;3.23;;
3563;SDS011;1796;52.388;13.096;2022-07-23T10:55:40;5.63;;;3.60;;
3563;SDS011;1796;52.388;13.096;2022-07-23T10:58:10;5.30;;;3.37;;
3563;SDS011;1796;52.388;13.096;2022-07-23T11:00:43;5.70;;;3.77;;
3563;SDS011;1796;52.388;13.096;2022-07-23T11:05:58;9.23;;;3.57;;
3563;SDS011;1796;52.388;13.096;2022-07-23T11:08:25;7.77;;;3.87;;
3563;SDS011;1796;52.388;13.096;2022-07-23T11:10:53;9.03;;;4.03;;
3563;SDS011;1796;52.388;13.096;2022-07-23T11:16:24;6.40;;;4.10;;
3563;SDS011;1796;52.388;13.096;2022-07-23T11:19:04;9.97;;;3.60;;
3563;SDS011;1796;52.388;13.096;2022-07-23T11:21:43;6.37;;;3.97;;
3563;SDS011;1796;52.388;13.096;2022-07-23T11:24:21;4.60;;;3.83;;
3563;SDS011;1796;52.388;13.096;2022-07-23T11:35:18;5.90;;;3.53;;
3563;SDS011;1796;52.388;13.096;2022-07-23T11:37:46;6.27;;;4.17;;
3563;SDS011;1796;52.388;13.096;2022-07-23T11:40:14;4.43;;;3.03;;
3563;SDS011;1796;52.388;13.096;2022-07-23T11:42:50;5.60;;;3.30;;
3563;SDS011;1796;52.388;13.096;2022-07-23T11:45:21;6.40;;;3.43;;
3563;SDS011;1796;52.388;13.096;2022-07-23T11:47:49;9.93;;;3.83;;
3563;SDS011;1796;52.388;13.096;2022-07-23T11:50:15;9.17;;;4.10;;
3563;SDS011;1796;52.388;13.096;2022-07-23T11:52:42;6.13;;;3.57;;
3563;SDS011;1796;52.388;13.096;2022-07-23T11:55:10;8.93;;;3.93;;
3563;SDS011;1796;52.388;13.096;2022-07-23T11:57:41;5.63;;;3.50;;
3563;SDS011;1796;52.388;13.096;2022-07-23T12:00:09;4.70;;;3.70;;
3563;SDS011;1796;52.388;13.096;2022-07-23T12:02:40;6.70;;;3.40;;
3563;SDS011;1796;52.388;13.096;2022-07-23T12:05:11;4.10;;;3.23;;
3563;SDS011;1796;52.388;13.096;2022-07-23T12:07:39;3.43;;;3.13;;
3563;SDS011;1796;52.388;13.096;2022-07-23T12:10:09;8.53;;;3.90;;
3563;SDS011;1796;52.388;13.096;2022-07-23T12:12:38;3.73;;;3.27;;
3563;SDS011;1796;52.388;13.096;2022-07-23T12:15:07;8.30;;;3.90;;
3563;SDS011;1796;52.388;13.096;2022-07-23T12:17:36;11.43;;;3.47;;
3563;SDS011;1796;52.388;13.096;2022-07-23T12:20:06;4.20;;;2.93;;
3563;SDS011;1796;52.388;13.096;2022-07-23T12:22:36;6.40;;;3.63;;
3563;SDS011;1796;52.388;13.096;2022-07-23T12:25:06;3.57;;;3.30;;
3563;SDS011;1796;52.388;13.096;2022-07-23T12:27:34;6.80;;;3.60;;
3563;SDS011;1796;52.388;13.096;2022-07-23T12:30:18;5.50;;;2.97;;
3563;SDS011;1796;52.388;13.096;2022-07-23T12:32:48;3.10;;;2.90;;
3563;SDS011;1796;52.388;13.096;2022-07-23T12:35:18;4.07;;;3.57;;
3563;SDS011;1796;52.388;13.096;2022-07-23T12:37:46;3.00;;;2.70;;
3563;SDS011;1796;52.388;13.096;2022-07-23T12:40:27;5.70;;;3.30;;
3563;SDS011;1796;52.388;13.096;2022-07-23T12:42:56;4.40;;;3.00;;
3563;SDS011;1796;52.388;13.096;2022-07-23T12:45:24;4.43;;;2.50;;
3563;SDS011;1796;52.388;13.096;2022-07-23T12:48:01;5.13;;;3.30;;
3563;SDS011;1796;52.388;13.096;2022-07-23T12:50:34;5.70;;;3.00;;
3563;SDS011;1796;52.388;13.096;2022-07-23T12:53:10;5.73;;;3.40;;
3563;SDS011;1796;52.388;13.096;2022-07-23T12:55:39;2.90;;;2.67;;
3563;SDS011;1796;52.388;13.096;2022-07-23T12:58:07;6.90;;;3.30;;
3563;SDS011;1796;52.388;13.096;2022-07-23T13:03:33;9.40;;;3.50;;
3563;SDS011;1796;52.388;13.096;2022-07-23T13:06:04;14.60;;;3.03;;
3563;SDS011;1796;52.388;13.096;2022-07-23T13:08:32;3.67;;;2.83;;
3563;SDS011;1796;52.388;13.096;2022-07-23T13:11:01;7.33;;;3.37;;
3563;SDS011;1796;52.388;13.096;2022-07-23T13:13:30;4.10;;;2.93;;
3563;SDS011;1796;52.388;13.096;2022-07-23T13:15:58;4.23;;;3.30;;
3563;SDS011;1796;52.388;13.096;2022-07-23T13:18:26;5.50;;;3.27;;
3563;SDS011;1796;52.388;13.096;2022-07-23T13:20:54;3.27;;;2.30;;
3563;SDS011;1796;52.388;13.096;2022-07-23T13:23:22;3.23;;;2.93;;
3563;SDS011;1796;52.388;13.096;2022-07-23T13:25:49;6.67;;;3.10;;
3563;SDS011;1796;52.388;13.096;2022-07-23T13:28:17;3.67;;;2.90;;
3563;SDS011;1796;52.388;13.096;2022-07-23T13:30:46;3.87;;;2.77;;
3563;SDS011;1796;52.388;13.096;2022-07-23T13:33:14;3.83;;;2.70;;
3563;SDS011;1796;52.388;13.096;2022-07-23T13:35:42;5.50;;;2.90;;
3563;SDS011;1796;52.388;13.096;2022-07-23T13:38:10;3.30;;;2.90;;
3563;SDS011;1796;52.388;13.096;2022-07-23T13:40:39;4.07;;;2.37;;
3563;SDS011;1796;52.388;13.096;2022-07-23T13:43:08;3.03;;;2.23;;
3563;SDS011;1796;52.388;13.096;2022-07-23T13:45:35;4.10;;;2.70;;
3563;SDS011;1796;52.388;13.096;2022-07-23T13:48:03;4.47;;;2.50;;
3563;SDS011;1796;52.388;13.096;2022-07-23T13:50:31;3.90;;;2.60;;
3563;SDS011;1796;52.388;13.096;2022-07-23T13:53:00;4.07;;;3.00;;
3563;SDS011;1796;52.388;13.096;2022-07-23T13:55:27;2.90;;;2.70;;
3563;SDS011;1796;52.388;13.096;2022-07-23T13:57:56;5.03;;;2.60;;
3563;SDS011;1796;52.388;13.096;2022-07-23T14:00:23;8.67;;;2.67;;
3563;SDS011;1796;52.388;13.096;2022-07-23T14:02:50;5.57;;;2.57;;
3563;SDS011;1796;52.388;13.096;2022-07-23T14:05:18;3.10;;;2.90;;
3563;SDS011;1796;52.388;13.096;2022-07-23T14:07:45;4.50;;;3.17;;
3563;SDS011;1796;52.388;13.096;2022-07-23T14:10:15;3.40;;;2.40;;
3563;SDS011;1796;52.388;13.096;2022-07-23T14:12:43;5.40;;;3.03;;
3563;SDS011;1796;52.388;13.096;2022-07-23T14:15:12;7.10;;;2.33;;
3563;SDS011;1796;52.388;13.096;2022-07-23T14:17:39;3.83;;;2.97;;
3563;SDS011;1796;52.388;13.096;2022-07-23T14:20:07;6.73;;;2.37;;
3563;SDS011;1796;52.388;13.096;2022-07-23T14:22:36;4.30;;;2.70;;
3563;SDS011;1796;52.388;13.096;2022-07-23T14:25:04;3.00;;;2.70;;
3563;SDS011;1796;52.388;13.096;2022-07-23T14:27:31;4.50;;;2.20;;
3563;SDS011;1796;52.388;13.096;2022-07-23T14:29:58;4.40;;;2.30;;
3563;SDS011;1796;52.388;13.096;2022-07-23T14:32:27;5.73;;;2.90;;
3563;SDS011;1796;52.388;13.096;2022-07-23T14:34:54;14.63;;;2.73;;
3563;SDS011;1796;52.388;13.096;2022-07-23T14:37:21;5.03;;;2.30;;
3563;SDS011;1796;52.388;13.096;2022-07-23T14:39:49;2.60;;;2.03;;
3563;SDS011;1796;52.388;13.096;2022-07-23T14:42:17;4.20;;;2.23;;
3563;SDS011;1796;52.388;13.096;2022-07-23T14:44:44;2.60;;;2.17;;
3563;SDS011;1796;52.388;13.096;2022-07-23T14:47:14;2.27;;;2.00;;
3563;SDS011;1796;52.388;13.096;2022-07-23T14:49:42;3.70;;;2.60;;
3563;SDS011;1796;52.388;13.096;2022-07-23T14:52:09;3.57;;;2.80;;
3563;SDS011;1796;52.388;13.096;2022-07-23T14:54:36;7.20;;;3.67;;
3563;SDS011;1796;52.388;13.096;2022-07-23T14:57:03;4.80;;;2.20;;
3563;SDS011;1796;52.388;13.096;2022-07-23T14:59:32;6.50;;;2.23;;
3563;SDS011;1796;52.388;13.096;2022-07-23T15:01:59;5.57;;;2.30;;
3563;SDS011;1796;52.388;13.096;2022-07-23T15:04:26;6.47;;;3.07;;
3563;SDS011;1796;52.388;13.096;2022-07-23T15:06:55;4.30;;;1.93;;
3563;SDS011;1796;52.388;13.096;2022-07-23T15:09:21;2.40;;;1.83;;
3563;SDS011;1796;52.388;13.096;2022-07-23T15:11:48;3.93;;;1.83;;
3563;SDS011;1796;52.388;13.096;2022-07-23T15:14:15;5.50;;;2.23;;
3563;SDS011;1796;52.388;13.096;2022-07-23T15:16:42;5.40;;;2.20;;
3563;SDS011;1796;52.388;13.096;2022-07-23T15:19:09;7.30;;;2.10;;
3563;SDS011;1796;52.388;13.096;2022-07-23T15:21:36;4.93;;;1.97;;